createdAt,value
2018-06-23T00:00:35.339Z,22.60
2018-06-23T00:01:35.593Z,16.40
2018-06-23T00:02:35.680Z,17.40
2018-06-23T00:03:35.284Z,17.90
2018-06-23T00:04:35.262Z,13.40
2018-06-23T00:05:35.273Z,19.70
2018-06-23T00:06:35.286Z,23.70
2018-06-23T00:07:35.521Z,20.30
2018-06-23T00:08:35.415Z,20.70
2018-06-23T00:09:35.331Z,21.50
2018-06-23T00:10:35.347Z,20.60
2018-06-23T00:11:35.363Z,17.00
2018-06-23T00:12:35.374Z,21.20
2018-06-23T00:13:35.388Z,19.10
2018-06-23T00:14:35.403Z,18.80
2018-06-23T00:15:35.417Z,20.60
2018-06-23T00:16:35.442Z,22.90
2018-06-23T00:17:35.473Z,23.00
2018-06-23T00:18:35.471Z,16.70
2018-06-23T00:19:35.477Z,15.00
2018-06-23T00:20:35.516Z,19.90
2018-06-23T00:21:35.709Z,22.80
2018-06-23T00:22:35.922Z,16.10
2018-06-23T00:23:35.547Z,23.10
2018-06-23T00:24:35.547Z,20.00
2018-06-23T00:25:35.581Z,20.50
2018-06-23T00:26:35.577Z,22.60
2018-06-23T00:27:35.590Z,22.30
2018-06-23T00:28:35.605Z,20.80
2018-06-23T00:29:35.621Z,19.10
2018-06-23T00:30:36.064Z,21.80
2018-06-23T00:31:35.782Z,21.10
2018-06-23T00:33:36.351Z,17.80
2018-06-23T00:34:35.692Z,19.50
2018-06-23T00:35:35.759Z,18.20
2018-06-23T00:36:35.745Z,21.00
2018-06-23T00:37:35.736Z,18.60
2018-06-23T00:38:35.749Z,22.50
2018-06-23T00:39:35.762Z,22.40
2018-06-23T00:40:35.780Z,16.90
2018-06-23T00:41:35.794Z,24.30
2018-06-23T00:42:35.808Z,21.90
2018-06-23T00:43:35.824Z,19.60
2018-06-23T00:44:35.835Z,20.30
2018-06-23T00:45:35.850Z,24.10
2018-06-23T00:46:35.865Z,24.30
2018-06-23T00:47:35.889Z,18.80
2018-06-23T00:48:35.897Z,21.60
2018-06-23T00:49:35.924Z,24.10
2018-06-23T00:50:35.922Z,18.70
2018-06-23T00:51:35.935Z,22.90
2018-06-23T00:52:35.949Z,15.40
2018-06-23T00:53:35.958Z,18.40
2018-06-23T00:54:35.970Z,18.90
2018-06-23T00:55:35.994Z,19.80
2018-06-23T00:56:36.059Z,22.30
2018-06-23T00:57:36.016Z,22.10
2018-06-23T00:58:36.028Z,14.60
2018-06-23T00:59:36.041Z,16.30
2018-06-23T01:00:36.055Z,20.00
2018-06-23T01:01:36.072Z,21.30
2018-06-23T01:02:36.085Z,20.20
2018-06-23T01:03:36.204Z,23.00
2018-06-23T01:04:36.167Z,19.30
2018-06-23T01:05:36.798Z,19.80
2018-06-23T01:06:36.625Z,19.60
2018-06-23T01:07:36.161Z,18.30
2018-06-23T01:08:36.169Z,22.00
2018-06-23T01:09:36.183Z,20.40
2018-06-23T01:10:36.198Z,17.70
2018-06-23T01:11:36.215Z,17.60
2018-06-23T01:12:36.227Z,19.90
2018-06-23T01:13:36.242Z,20.90
2018-06-23T01:14:36.255Z,15.50
2018-06-23T01:15:36.269Z,19.70
2018-06-23T01:16:36.283Z,17.70
2018-06-23T01:17:36.298Z,16.30
2018-06-23T01:18:36.316Z,18.80
2018-06-23T01:19:36.327Z,20.20
2018-06-23T01:20:36.591Z,19.40
2018-06-23T01:21:36.394Z,17.90
2018-06-23T01:22:36.369Z,17.10
2018-06-23T01:24:36.413Z,16.40
2018-06-23T01:25:36.473Z,14.60
2018-06-23T01:26:36.430Z,21.20
2018-06-23T01:27:36.443Z,16.00
2018-06-23T01:28:36.456Z,20.50
2018-06-23T01:29:36.469Z,17.40
2018-06-23T01:30:36.482Z,20.80
2018-06-23T01:31:36.497Z,19.60
2018-06-23T01:32:36.513Z,20.20
2018-06-23T01:33:36.531Z,18.60
2018-06-23T01:34:36.647Z,21.50
2018-06-23T01:35:36.623Z,22.00
2018-06-23T01:36:36.575Z,21.30
2018-06-23T01:37:36.609Z,19.50
2018-06-23T01:38:36.599Z,16.20
2018-06-23T01:39:36.609Z,21.30
2018-06-23T01:40:36.634Z,19.50
2018-06-23T01:41:36.639Z,20.70
2018-06-23T01:42:36.653Z,16.30
2018-06-23T01:43:36.666Z,22.10
2018-06-23T01:44:36.680Z,24.20
2018-06-23T01:45:36.696Z,21.90
2018-06-23T01:46:36.711Z,21.20
2018-06-23T01:47:36.725Z,21.20
2018-06-23T01:48:36.736Z,20.40
2018-06-23T01:49:36.752Z,21.30
2018-06-23T01:50:36.766Z,16.60
2018-06-23T01:51:36.780Z,17.50
2018-06-23T01:52:36.794Z,22.10
2018-06-23T01:53:36.807Z,21.90
2018-06-23T01:54:36.822Z,19.60
2018-06-23T01:55:36.835Z,19.60
2018-06-23T01:56:36.848Z,14.70
2018-06-23T01:57:37.001Z,18.10
2018-06-23T01:58:37.282Z,16.10
2018-06-23T01:59:37.205Z,20.60
2018-06-23T02:00:36.918Z,18.90
2018-06-23T02:01:36.919Z,17.80
2018-06-23T02:02:36.933Z,20.10
2018-06-23T02:03:36.996Z,18.50
2018-06-23T02:04:36.966Z,18.70
2018-06-23T02:05:37.157Z,18.30
2018-06-23T02:06:37.030Z,22.80
2018-06-23T02:07:37.047Z,14.70
2018-06-23T02:08:37.064Z,13.90
2018-06-23T02:09:37.066Z,17.20
2018-06-23T02:10:37.052Z,16.90
2018-06-23T02:11:37.059Z,18.20
2018-06-23T02:12:37.071Z,18.00
2018-06-23T02:13:37.084Z,17.90
2018-06-23T02:14:37.100Z,16.00
2018-06-23T02:15:37.113Z,14.20
2018-06-23T02:16:37.124Z,19.50
2018-06-23T02:17:37.140Z,20.30
2018-06-23T02:18:37.153Z,19.00
2018-06-23T02:19:37.170Z,16.80
2018-06-23T02:20:37.185Z,20.60
2018-06-23T02:21:37.358Z,16.10
2018-06-23T02:22:37.245Z,15.60
2018-06-23T02:23:37.224Z,17.90
2018-06-23T02:24:37.236Z,18.30
2018-06-23T02:25:37.260Z,25.40
2018-06-23T02:26:37.265Z,20.20
2018-06-23T02:27:37.803Z,18.20
2018-06-23T02:28:37.292Z,17.20
2018-06-23T02:29:37.578Z,17.70
2018-06-23T02:31:37.337Z,16.90
2018-06-23T02:32:37.348Z,18.90
2018-06-23T02:33:37.361Z,20.50
2018-06-23T02:34:37.380Z,19.70
2018-06-23T02:35:37.390Z,20.70
2018-06-23T02:36:37.402Z,18.30
2018-06-23T02:37:37.475Z,16.00
2018-06-23T02:38:37.434Z,15.50
2018-06-23T02:39:37.449Z,20.80
2018-06-23T02:40:37.460Z,16.60
2018-06-23T02:41:37.476Z,19.30
2018-06-23T02:42:37.483Z,18.20
2018-06-23T02:43:37.496Z,16.50
2018-06-23T02:44:37.514Z,19.50
2018-06-23T02:45:37.527Z,15.20
2018-06-23T02:46:37.555Z,18.30
2018-06-23T02:47:37.805Z,16.90
2018-06-23T02:48:37.582Z,14.80
2018-06-23T02:49:37.603Z,14.60
2018-06-23T02:50:37.596Z,20.10
2018-06-23T02:51:37.606Z,19.90
2018-06-23T02:52:37.622Z,19.50
2018-06-23T02:53:37.634Z,20.20
2018-06-23T02:54:37.709Z,16.40
2018-06-23T02:55:37.684Z,16.70
2018-06-23T02:56:37.680Z,16.30
2018-06-23T02:57:37.688Z,16.10
2018-06-23T02:58:38.066Z,20.00
2018-06-23T02:59:37.737Z,16.80
2018-06-23T03:00:37.782Z,19.60
2018-06-23T03:01:37.757Z,16.40
2018-06-23T03:02:37.778Z,19.60
2018-06-23T03:03:38.937Z,19.70
2018-06-23T03:04:37.785Z,15.80
2018-06-23T03:05:37.817Z,12.00
2018-06-23T03:06:37.817Z,17.10
2018-06-23T03:07:37.827Z,20.00
2018-06-23T03:08:37.843Z,17.20
2018-06-23T03:09:37.952Z,13.90
2018-06-23T03:10:38.526Z,16.90
2018-06-23T03:11:37.912Z,17.30
2018-06-23T03:12:37.896Z,17.00
2018-06-23T03:13:37.913Z,16.30
2018-06-23T03:14:37.924Z,17.60
2018-06-23T03:15:37.935Z,17.20
2018-06-23T03:16:37.967Z,18.30
2018-06-23T03:17:38.051Z,14.50
2018-06-23T03:18:38.047Z,22.60
2018-06-23T03:19:37.993Z,16.30
2018-06-23T03:20:38.004Z,17.70
2018-06-23T03:21:38.110Z,19.60
2018-06-23T03:22:38.032Z,15.60
2018-06-23T03:23:38.093Z,19.50
2018-06-23T03:24:38.060Z,20.10
2018-06-23T03:25:38.223Z,17.60
2018-06-23T03:26:38.285Z,15.40
2018-06-23T03:28:38.159Z,20.30
2018-06-23T03:29:38.131Z,16.00
2018-06-23T03:30:38.142Z,19.00
2018-06-23T03:31:38.156Z,20.80
2018-06-23T03:32:38.167Z,17.50
2018-06-23T03:33:38.183Z,19.90
2018-06-23T03:34:38.202Z,20.10
2018-06-23T03:35:38.209Z,18.40
2018-06-23T03:36:38.223Z,15.40
2018-06-23T03:37:38.237Z,18.80
2018-06-23T03:38:38.261Z,16.50
2018-06-23T03:39:38.263Z,17.40
2018-06-23T03:41:38.357Z,17.10
2018-06-23T03:42:38.311Z,18.10
2018-06-23T03:43:38.520Z,16.10
2018-06-23T03:44:38.333Z,15.70
2018-06-23T03:45:38.347Z,16.10
2018-06-23T03:46:38.384Z,15.10
2018-06-23T03:47:38.376Z,16.00
2018-06-23T03:48:38.484Z,18.00
2018-06-23T03:49:38.400Z,14.50
2018-06-23T03:50:38.433Z,17.90
2018-06-23T03:51:38.452Z,20.80
2018-06-23T03:52:38.441Z,20.20
2018-06-23T03:53:38.492Z,15.50
2018-06-23T03:54:38.469Z,20.90
2018-06-23T03:55:38.542Z,13.80
2018-06-23T03:56:38.505Z,16.70
2018-06-23T03:57:38.512Z,13.90
2018-06-23T03:58:39.064Z,16.90
2018-06-23T03:59:38.536Z,16.60
2018-06-23T04:01:38.563Z,16.70
2018-06-23T04:02:38.581Z,15.50
2018-06-23T04:03:38.619Z,13.60
2018-06-23T04:04:38.705Z,16.80
2018-06-23T04:05:39.302Z,13.50
2018-06-23T04:06:38.638Z,14.00
2018-06-23T04:07:38.646Z,16.90
2018-06-23T04:08:38.660Z,18.70
2018-06-23T04:09:38.673Z,15.80
2018-06-23T04:10:38.688Z,14.30
2018-06-23T04:11:38.730Z,18.10
2018-06-23T04:13:38.800Z,18.90
2018-06-23T04:14:39.412Z,14.70
2018-06-23T04:15:38.753Z,14.40
2018-06-23T04:16:38.773Z,12.10
2018-06-23T04:17:38.786Z,20.20
2018-06-23T04:18:38.795Z,16.50
2018-06-23T04:19:38.810Z,14.00
2018-06-23T04:20:38.821Z,18.50
2018-06-23T04:21:38.841Z,21.80
2018-06-23T04:22:38.848Z,17.80
2018-06-23T04:23:38.868Z,13.40
2018-06-23T04:24:38.876Z,12.60
2018-06-23T04:25:38.899Z,14.80
2018-06-23T04:26:39.009Z,11.30
2018-06-23T04:27:38.916Z,11.50
2018-06-23T04:28:38.953Z,13.40
2018-06-23T04:29:38.947Z,14.30
2018-06-23T04:30:38.959Z,16.50
2018-06-23T04:31:38.970Z,12.40
2018-06-23T04:32:39.035Z,16.10
2018-06-23T04:33:39.014Z,17.30
2018-06-23T04:34:39.402Z,15.80
2018-06-23T04:35:39.370Z,14.10
2018-06-23T04:36:39.119Z,12.50
2018-06-23T04:37:39.051Z,12.90
2018-06-23T04:38:39.112Z,12.90
2018-06-23T04:39:39.078Z,14.10
2018-06-23T04:40:39.466Z,12.50
2018-06-23T04:41:39.106Z,14.90
2018-06-23T04:42:39.119Z,12.00
2018-06-23T04:43:39.134Z,11.40
2018-06-23T04:44:39.151Z,11.70
2018-06-23T04:46:39.380Z,13.50
2018-06-23T04:47:39.233Z,14.00
2018-06-23T04:48:39.211Z,12.30
2018-06-23T04:49:39.220Z,12.10
2018-06-23T04:50:39.237Z,12.60
2018-06-23T04:51:39.257Z,13.50
2018-06-23T04:52:39.268Z,12.70
2018-06-23T04:53:39.270Z,13.10
2018-06-23T04:54:39.283Z,12.80
2018-06-23T04:55:39.303Z,13.60
2018-06-23T04:56:39.313Z,15.30
2018-06-23T04:57:39.346Z,10.70
2018-06-23T05:00:41.338Z,12.90
2018-06-23T05:02:39.494Z,14.00
2018-06-23T05:03:39.412Z,16.10
2018-06-23T05:04:40.821Z,16.30
2018-06-23T05:05:39.441Z,12.90
2018-06-23T05:06:39.448Z,10.30
2018-06-23T05:07:39.461Z,8.70
2018-06-23T05:08:39.474Z,13.40
2018-06-23T05:09:39.516Z,10.90
2018-06-23T05:10:39.623Z,15.10
2018-06-23T05:11:39.766Z,15.00
2018-06-23T05:12:40.620Z,11.90
2018-06-23T05:13:40.019Z,11.90
2018-06-23T05:14:39.556Z,10.80
2018-06-23T05:15:40.076Z,14.80
2018-06-23T05:17:39.707Z,11.00
2018-06-23T05:18:39.666Z,10.30
2018-06-23T05:19:39.629Z,11.60
2018-06-23T05:20:39.668Z,15.20
2018-06-23T05:21:39.678Z,13.00
2018-06-23T05:22:39.670Z,12.90
2018-06-23T05:23:39.680Z,11.20
2018-06-23T05:24:39.694Z,13.00
2018-06-23T05:25:39.707Z,12.30
2018-06-23T05:26:39.731Z,15.30
2018-06-23T05:27:39.735Z,13.50
2018-06-23T05:28:39.865Z,12.10
2018-06-23T05:29:39.864Z,11.20
2018-06-23T05:30:39.782Z,16.80
2018-06-23T05:31:39.817Z,14.10
2018-06-23T05:32:39.804Z,13.30
2018-06-23T05:33:39.816Z,13.80
2018-06-23T05:34:39.898Z,10.90
2018-06-23T05:35:39.847Z,13.60
2018-06-23T05:36:39.864Z,11.20
2018-06-23T05:37:39.933Z,10.60
2018-06-23T05:38:39.888Z,10.20
2018-06-23T05:39:39.964Z,15.40
2018-06-23T05:40:39.955Z,13.60
2018-06-23T05:41:39.942Z,11.10
2018-06-23T05:42:39.960Z,14.80
2018-06-23T05:43:39.956Z,13.60
2018-06-23T05:44:39.987Z,12.90
2018-06-23T05:45:39.983Z,11.50
2018-06-23T05:46:40.024Z,14.00
2018-06-23T05:47:40.014Z,11.40
2018-06-23T05:48:40.075Z,15.00
2018-06-23T05:49:40.048Z,15.30
2018-06-23T05:50:40.095Z,15.00
2018-06-23T05:51:40.068Z,15.10
2018-06-23T05:52:40.493Z,10.90
2018-06-23T05:53:40.367Z,11.70
2018-06-23T05:54:41.061Z,13.00
2018-06-23T05:55:40.133Z,15.20
2018-06-23T05:56:40.148Z,12.50
2018-06-23T05:57:40.164Z,13.70
2018-06-23T05:58:40.163Z,14.20
2018-06-23T05:59:40.176Z,10.70
2018-06-23T06:00:40.263Z,15.40
2018-06-23T06:02:40.473Z,14.70
2018-06-23T06:03:40.285Z,13.10
2018-06-23T06:04:40.248Z,10.50
2018-06-23T06:05:40.261Z,11.50
2018-06-23T06:06:40.276Z,15.30
2018-06-23T06:07:40.288Z,17.30
2018-06-23T06:08:40.302Z,12.60
2018-06-23T06:09:40.319Z,12.30
2018-06-23T06:10:40.693Z,15.70
2018-06-23T06:11:40.390Z,11.10
2018-06-23T06:12:40.379Z,13.30
2018-06-23T06:13:40.372Z,15.10
2018-06-23T06:14:40.388Z,11.50
2018-06-23T06:15:40.404Z,12.00
2018-06-23T06:16:40.415Z,13.50
2018-06-23T06:17:40.429Z,12.50
2018-06-23T06:18:40.444Z,14.30
2018-06-23T06:19:40.760Z,14.70
2018-06-23T06:20:40.613Z,14.40
2018-06-23T06:21:40.503Z,13.00
2018-06-23T06:22:40.515Z,17.50
2018-06-23T06:23:40.528Z,10.60
2018-06-23T06:24:40.576Z,15.60
2018-06-23T06:25:40.544Z,9.90
2018-06-23T06:26:40.559Z,14.10
2018-06-23T06:27:40.572Z,18.20
2018-06-23T06:28:40.587Z,16.30
2018-06-23T06:29:40.604Z,15.20
2018-06-23T06:30:40.615Z,15.10
2018-06-23T06:31:40.629Z,11.80
2018-06-23T06:32:40.641Z,12.00
2018-06-23T06:33:40.765Z,12.10
2018-06-23T06:35:41.581Z,14.60
2018-06-23T06:36:40.718Z,14.40
2018-06-23T06:37:40.715Z,12.50
2018-06-23T06:38:41.362Z,15.30
2018-06-23T06:39:40.831Z,15.70
2018-06-23T06:40:40.838Z,16.10
2018-06-23T06:41:41.302Z,15.30
2018-06-23T06:42:40.800Z,13.40
2018-06-23T06:43:40.802Z,12.80
2018-06-23T06:44:40.885Z,14.70
2018-06-23T06:45:40.832Z,16.70
2018-06-23T06:46:40.851Z,20.10
2018-06-23T06:47:40.863Z,11.40
2018-06-23T06:48:40.878Z,15.40
2018-06-23T06:49:40.893Z,14.20
2018-06-23T06:50:41.315Z,15.10
2018-06-23T06:52:40.965Z,12.20
2018-06-23T06:53:40.974Z,13.80
2018-06-23T06:54:40.964Z,17.90
2018-06-23T06:55:40.983Z,16.60
2018-06-23T06:56:40.997Z,12.30
2018-06-23T06:57:41.016Z,12.20
2018-06-23T06:58:41.024Z,14.00
2018-06-23T06:59:41.043Z,13.10
2018-06-23T07:00:41.257Z,12.80
2018-06-23T07:02:41.196Z,18.00
2018-06-23T07:03:41.104Z,13.00
2018-06-23T07:05:41.134Z,12.40
2018-06-23T07:06:41.150Z,10.60
2018-06-23T07:07:41.168Z,12.20
2018-06-23T07:08:41.174Z,11.40
2018-06-23T07:09:41.189Z,13.70
2018-06-23T07:10:41.214Z,12.30
2018-06-23T07:11:41.218Z,17.10
2018-06-23T07:12:41.235Z,11.50
2018-06-23T07:13:41.247Z,15.90
2018-06-23T07:14:41.262Z,15.30
2018-06-23T07:15:41.292Z,14.10
2018-06-23T07:16:41.293Z,11.10
2018-06-23T07:17:41.336Z,11.50
2018-06-23T07:18:41.329Z,13.50
2018-06-23T07:19:41.340Z,13.00
2018-06-23T07:20:41.362Z,13.80
2018-06-23T07:21:41.569Z,14.10
2018-06-23T07:22:41.389Z,14.80
2018-06-23T07:23:41.515Z,11.40
2018-06-23T07:25:41.907Z,16.10
2018-06-23T07:26:41.471Z,15.40
2018-06-23T07:27:41.464Z,11.70
2018-06-23T07:28:41.478Z,13.20
2018-06-23T07:29:41.538Z,15.10
2018-06-23T07:30:41.512Z,14.50
2018-06-23T07:31:41.517Z,13.50
2018-06-23T07:32:41.630Z,15.20
2018-06-23T07:33:41.548Z,13.70
2018-06-23T07:34:41.604Z,15.40
2018-06-23T07:35:41.578Z,12.10
2018-06-23T07:36:41.597Z,11.40
2018-06-23T07:37:41.611Z,11.00
2018-06-23T07:38:41.630Z,13.50
2018-06-23T07:39:41.711Z,12.20
2018-06-23T07:40:41.681Z,14.40
2018-06-23T07:41:41.769Z,12.70
2018-06-23T07:42:41.753Z,13.20
2018-06-23T07:43:41.732Z,12.10
2018-06-23T07:44:41.714Z,8.90
2018-06-23T07:45:41.781Z,14.10
2018-06-23T07:46:41.995Z,11.40
2018-06-23T07:47:41.760Z,14.70
2018-06-23T07:48:41.972Z,14.60
2018-06-23T07:49:42.094Z,12.50
2018-06-23T07:50:41.817Z,12.90
2018-06-23T07:51:41.878Z,11.00
2018-06-23T07:52:42.116Z,15.50
2018-06-23T07:53:41.849Z,14.80
2018-06-23T07:54:42.653Z,11.70
2018-06-23T07:55:41.879Z,13.00
2018-06-23T07:56:41.898Z,11.30
2018-06-23T07:58:42.071Z,11.40
2018-06-23T07:59:42.075Z,11.90
2018-06-23T08:00:41.990Z,11.70
2018-06-23T08:01:42.006Z,11.40
2018-06-23T08:02:41.996Z,12.00
2018-06-23T08:03:42.006Z,13.60
2018-06-23T08:04:42.018Z,10.30
2018-06-23T08:05:42.051Z,10.40
2018-06-23T08:06:42.052Z,15.70
2018-06-23T08:07:42.064Z,14.90
2018-06-23T08:08:42.077Z,11.90
2018-06-23T08:09:42.093Z,12.00
2018-06-23T08:10:42.113Z,11.60
2018-06-23T08:11:42.141Z,11.80
2018-06-23T08:12:42.274Z,11.70
2018-06-23T08:13:42.409Z,17.00
2018-06-23T08:14:42.223Z,10.90
2018-06-23T08:15:42.217Z,12.60
2018-06-23T08:16:42.209Z,10.70
2018-06-23T08:17:42.219Z,12.80
2018-06-23T08:18:42.242Z,10.90
2018-06-23T08:19:42.260Z,10.80
2018-06-23T08:20:42.260Z,7.80
2018-06-23T08:21:42.278Z,10.70
2018-06-23T08:22:42.294Z,11.70
2018-06-23T08:23:42.308Z,10.70
2018-06-23T08:24:42.534Z,12.90
2018-06-23T08:25:42.343Z,9.70
2018-06-23T08:26:42.642Z,8.50
2018-06-23T08:27:42.374Z,11.70
2018-06-23T08:28:42.398Z,8.10
2018-06-23T08:29:42.446Z,9.90
2018-06-23T08:30:42.773Z,10.20
2018-06-23T08:31:42.455Z,11.30
2018-06-23T08:32:42.452Z,12.60
2018-06-23T08:33:42.464Z,10.80
2018-06-23T08:34:42.482Z,11.20
2018-06-23T08:35:42.496Z,9.60
2018-06-23T08:36:42.529Z,9.80
2018-06-23T08:37:42.557Z,10.50
2018-06-23T08:38:42.546Z,8.70
2018-06-23T08:39:42.603Z,8.30
2018-06-23T08:40:42.572Z,9.90
2018-06-23T08:41:42.637Z,8.10
2018-06-23T08:42:42.614Z,10.30
2018-06-23T08:43:42.818Z,9.60
2018-06-23T08:44:42.682Z,10.70
2018-06-23T08:45:42.665Z,10.90
2018-06-23T08:46:42.671Z,11.60
2018-06-23T08:47:42.684Z,10.60
2018-06-23T08:48:42.702Z,11.30
2018-06-23T08:49:42.718Z,9.50
2018-06-23T08:50:42.754Z,10.50
2018-06-23T08:51:42.746Z,11.80
2018-06-23T08:53:42.891Z,10.80
2018-06-23T08:54:42.844Z,12.30
2018-06-23T08:55:42.861Z,8.80
2018-06-23T08:56:44.633Z,11.90
2018-06-23T08:57:42.850Z,8.90
2018-06-23T08:58:42.855Z,9.50
2018-06-23T08:59:42.871Z,10.10
2018-06-23T09:00:42.885Z,9.60
2018-06-23T09:01:42.947Z,11.00
2018-06-23T09:02:43.010Z,9.90
2018-06-23T09:03:42.932Z,11.30
2018-06-23T09:04:42.948Z,8.60
2018-06-23T09:05:42.966Z,12.60
2018-06-23T09:07:43.036Z,8.10
2018-06-23T09:08:43.011Z,8.80
2018-06-23T09:09:43.026Z,8.60
2018-06-23T09:10:43.238Z,7.20
2018-06-23T09:11:43.059Z,9.30
2018-06-23T09:12:43.303Z,9.60
2018-06-23T09:13:43.152Z,12.60
2018-06-23T09:14:43.105Z,9.60
2018-06-23T09:15:45.585Z,11.10
2018-06-23T09:16:43.927Z,9.90
2018-06-23T09:17:43.953Z,9.20
2018-06-23T09:18:44.675Z,9.50
2018-06-23T09:20:43.328Z,10.70
2018-06-23T09:21:43.339Z,9.70
2018-06-23T09:22:43.250Z,11.50
2018-06-23T09:23:43.246Z,12.50
2018-06-23T09:24:43.264Z,9.60
2018-06-23T09:25:43.310Z,7.70
2018-06-23T09:26:43.293Z,11.00
2018-06-23T09:27:43.313Z,10.70
2018-06-23T09:28:43.348Z,9.50
2018-06-23T09:29:43.346Z,9.30
2018-06-23T09:30:43.362Z,8.50
2018-06-23T09:31:43.380Z,8.70
2018-06-23T09:32:43.391Z,10.90
2018-06-23T09:33:43.409Z,11.50
2018-06-23T09:34:43.424Z,10.60
2018-06-23T09:35:44.673Z,9.50
2018-06-23T09:36:43.473Z,7.80
2018-06-23T09:38:43.902Z,9.20
2018-06-23T09:39:43.607Z,8.70
2018-06-23T09:40:43.541Z,10.20
2018-06-23T09:41:43.535Z,12.60
2018-06-23T09:42:44.970Z,8.30
2018-06-23T09:43:43.564Z,9.70
2018-06-23T09:44:43.744Z,6.90
2018-06-23T09:45:43.601Z,7.50
2018-06-23T09:46:44.783Z,6.70
2018-06-23T09:47:44.647Z,9.60
2018-06-23T09:48:43.643Z,10.20
2018-06-23T09:49:43.660Z,12.30
2018-06-23T09:50:43.677Z,10.40
2018-06-23T09:51:43.684Z,9.80
2018-06-23T09:52:43.848Z,11.40
2018-06-23T09:53:44.805Z,10.50
2018-06-23T09:55:43.848Z,9.40
2018-06-23T09:56:44.272Z,12.70
2018-06-23T09:57:44.617Z,8.20
2018-06-23T09:58:44.553Z,7.40
2018-06-23T10:00:43.828Z,10.70
2018-06-23T10:01:43.849Z,8.40
2018-06-23T10:02:44.986Z,12.30
2018-06-23T10:03:43.874Z,9.30
2018-06-23T10:04:43.890Z,8.00
2018-06-23T10:05:43.908Z,9.60
2018-06-23T10:06:43.922Z,11.20
2018-06-23T10:07:43.949Z,7.80
2018-06-23T10:08:43.967Z,9.50
2018-06-23T10:09:43.980Z,9.70
2018-06-23T10:10:43.999Z,12.40
2018-06-23T10:11:44.056Z,11.40
2018-06-23T10:12:44.928Z,9.20
2018-06-23T10:13:44.062Z,9.20
2018-06-23T10:14:44.653Z,8.90
2018-06-23T10:15:44.100Z,7.80
2018-06-23T10:16:44.083Z,9.10
2018-06-23T10:19:44.335Z,8.50
2018-06-23T10:20:44.148Z,11.40
2018-06-23T10:21:44.166Z,7.10
2018-06-23T10:22:44.239Z,7.80
2018-06-23T10:23:44.350Z,9.40
2018-06-23T10:24:44.559Z,7.00
2018-06-23T10:25:44.233Z,7.90
2018-06-23T10:26:44.452Z,7.90
2018-06-23T10:27:44.656Z,10.70
2018-06-23T10:28:44.284Z,7.90
2018-06-23T10:29:44.296Z,11.50
2018-06-23T10:30:44.326Z,7.20
2018-06-23T10:31:44.358Z,7.80
2018-06-23T10:32:44.346Z,8.60
2018-06-23T10:33:44.364Z,8.70
2018-06-23T10:35:46.019Z,8.80
2018-06-23T10:37:44.439Z,7.50
2018-06-23T10:38:44.834Z,7.20
2018-06-23T10:39:44.632Z,7.60
2018-06-23T10:40:44.775Z,6.30
2018-06-23T10:41:44.667Z,7.10
2018-06-23T10:42:45.310Z,7.90
2018-06-23T10:43:44.827Z,8.10
2018-06-23T10:44:45.146Z,8.40
2018-06-23T10:46:45.579Z,7.80
2018-06-23T10:47:44.914Z,8.10
2018-06-23T10:48:44.724Z,7.40
2018-06-23T10:49:44.637Z,8.90
2018-06-23T10:50:44.773Z,5.70
2018-06-23T10:51:44.937Z,10.00
2018-06-23T10:53:44.914Z,7.90
2018-06-23T10:54:44.831Z,8.10
2018-06-23T10:55:44.890Z,8.00
2018-06-23T10:56:44.864Z,9.00
2018-06-23T10:57:44.959Z,8.20
2018-06-23T10:58:45.036Z,10.10
2018-06-23T10:59:45.495Z,9.00
2018-06-23T11:00:44.882Z,8.30
2018-06-23T11:01:45.334Z,6.60
2018-06-23T11:02:44.859Z,10.20
2018-06-23T11:03:44.909Z,8.70
2018-06-23T11:04:45.633Z,8.60
2018-06-23T11:05:44.958Z,8.10
2018-06-23T11:06:44.909Z,9.40
2018-06-23T11:07:44.935Z,8.40
2018-06-23T11:08:44.954Z,6.30
2018-06-23T11:09:45.101Z,6.20
2018-06-23T11:10:45.131Z,7.50
2018-06-23T11:11:45.028Z,7.90
2018-06-23T11:13:45.144Z,6.80
2018-06-23T11:14:45.049Z,7.40
2018-06-23T11:15:45.365Z,6.10
2018-06-23T11:16:45.252Z,6.10
2018-06-23T11:18:45.275Z,8.00
2018-06-23T11:19:45.445Z,6.80
2018-06-23T11:20:45.154Z,9.50
2018-06-23T11:21:45.174Z,8.50
2018-06-23T11:22:45.282Z,8.30
2018-06-23T11:23:45.728Z,6.80
2018-06-23T11:24:45.251Z,4.50
2018-06-23T11:25:45.249Z,9.70
2018-06-23T11:26:45.823Z,7.20
2018-06-23T11:27:45.271Z,6.50
2018-06-23T11:28:45.329Z,7.00
2018-06-23T11:29:45.639Z,7.30
2018-06-23T11:30:45.784Z,6.10
2018-06-23T11:31:46.415Z,6.60
2018-06-23T11:32:45.417Z,7.70
2018-06-23T11:34:45.427Z,6.50
2018-06-23T11:35:45.406Z,5.40
2018-06-23T11:37:45.488Z,7.10
2018-06-23T11:38:45.772Z,6.20
2018-06-23T11:39:45.856Z,7.00
2018-06-23T11:40:45.775Z,7.10
2018-06-23T11:41:45.670Z,6.00
2018-06-23T11:42:45.933Z,5.70
2018-06-23T11:43:45.751Z,8.10
2018-06-23T11:44:46.988Z,6.50
2018-06-23T11:45:45.555Z,5.60
2018-06-23T11:46:46.506Z,5.70
2018-06-23T11:47:46.144Z,7.20
2018-06-23T11:48:45.731Z,6.90
2018-06-23T11:50:45.868Z,6.70
2018-06-23T11:51:45.732Z,8.00
2018-06-23T11:52:45.795Z,7.80
2018-06-23T11:55:46.446Z,5.10
2018-06-23T11:56:45.806Z,6.50
2018-06-23T11:57:46.369Z,8.90
2018-06-23T11:58:46.360Z,5.60
2018-06-23T11:59:45.824Z,7.50
2018-06-23T12:01:45.925Z,5.00
2018-06-23T12:02:45.955Z,7.50
2018-06-23T12:03:45.920Z,6.00
2018-06-23T12:04:45.879Z,7.30
2018-06-23T12:05:46.289Z,5.90
2018-06-23T12:07:47.335Z,5.80
2018-06-23T12:08:45.976Z,5.60
2018-06-23T12:09:45.992Z,7.60
2018-06-23T12:10:46.395Z,5.50
2018-06-23T12:11:46.034Z,6.10
2018-06-23T12:12:46.108Z,7.50
2018-06-23T12:13:46.020Z,6.70
2018-06-23T12:14:46.047Z,6.10
2018-06-23T12:15:46.733Z,6.60
2018-06-23T12:17:46.084Z,5.80
2018-06-23T12:18:46.101Z,8.20
2018-06-23T12:19:46.117Z,6.20
2018-06-23T12:20:46.135Z,7.10
2018-06-23T12:21:46.153Z,6.50
2018-06-23T12:22:46.169Z,4.20
2018-06-23T12:23:47.029Z,5.20
2018-06-23T12:24:46.271Z,9.30
2018-06-23T12:25:46.224Z,5.60
2018-06-23T12:26:46.384Z,6.90
2018-06-23T12:27:46.285Z,6.30
2018-06-23T12:28:48.186Z,6.00
2018-06-23T12:29:46.606Z,6.60
2018-06-23T12:30:46.303Z,8.40
2018-06-23T12:31:46.320Z,6.20
2018-06-23T12:33:46.362Z,7.50
2018-06-23T12:34:46.399Z,6.50
2018-06-23T12:35:46.464Z,7.70
2018-06-23T12:36:46.421Z,6.10
2018-06-23T12:37:46.436Z,7.30
2018-06-23T12:38:46.642Z,5.60
2018-06-23T12:39:46.460Z,6.20
2018-06-23T12:40:46.482Z,4.10
2018-06-23T12:41:46.547Z,6.00
2018-06-23T12:42:46.523Z,6.40
2018-06-23T12:43:46.538Z,6.10
2018-06-23T12:44:46.558Z,4.90
2018-06-23T12:45:47.048Z,8.80
2018-06-23T12:46:46.599Z,4.70
2018-06-23T12:47:46.618Z,6.10
2018-06-23T12:48:46.636Z,5.40
2018-06-23T12:49:46.655Z,5.90
2018-06-23T12:50:46.675Z,5.70
2018-06-23T12:51:46.942Z,5.00
2018-06-23T12:52:47.176Z,5.80
2018-06-23T12:53:47.275Z,6.40
2018-06-23T12:54:46.785Z,5.10
2018-06-23T12:55:46.768Z,8.20
2018-06-23T12:56:47.070Z,5.60
2018-06-23T12:57:46.811Z,6.50
2018-06-23T12:58:46.852Z,8.60
2018-06-23T13:00:46.971Z,7.40
2018-06-23T13:01:46.900Z,5.00
2018-06-23T13:02:47.261Z,5.70
2018-06-23T13:03:46.931Z,4.90
2018-06-23T13:04:47.194Z,4.80
2018-06-23T13:05:46.974Z,5.70
2018-06-23T13:06:46.998Z,4.10
2018-06-23T13:07:47.018Z,6.20
2018-06-23T13:08:47.577Z,4.00
2018-06-23T13:09:47.090Z,4.90
2018-06-23T13:10:47.085Z,4.00
2018-06-23T13:11:47.109Z,5.50
2018-06-23T13:12:47.130Z,6.00
2018-06-23T13:13:47.148Z,5.00
2018-06-23T13:14:47.606Z,4.90
2018-06-23T13:15:47.188Z,4.50
2018-06-23T13:16:47.206Z,5.40
2018-06-23T13:17:47.227Z,5.30
2018-06-23T13:18:47.247Z,4.60
2018-06-23T13:19:47.318Z,4.50
2018-06-23T13:20:47.508Z,5.50
2018-06-23T13:21:47.319Z,5.90
2018-06-23T13:22:47.343Z,5.30
2018-06-23T13:23:48.135Z,5.10
2018-06-23T13:24:48.706Z,6.20
2018-06-23T13:25:47.400Z,5.80
2018-06-23T13:26:47.965Z,6.60
2018-06-23T13:27:47.544Z,6.60
2018-06-23T13:28:47.780Z,5.20
2018-06-23T13:30:47.479Z,11.20
2018-06-23T13:32:47.507Z,5.00
2018-06-23T13:33:47.525Z,4.90
2018-06-23T13:34:47.543Z,5.90
2018-06-23T13:35:47.762Z,4.70
2018-06-23T13:36:47.656Z,4.40
2018-06-23T13:37:47.599Z,5.70
2018-06-23T13:38:47.615Z,4.50
2018-06-23T13:39:47.637Z,5.50
2018-06-23T13:40:47.649Z,4.40
2018-06-23T13:41:47.670Z,5.20
2018-06-23T13:42:47.687Z,3.60
2018-06-23T13:43:47.703Z,5.10
2018-06-23T13:44:47.764Z,5.10
2018-06-23T13:45:47.739Z,4.40